Flight Track Log - Related Links

Times and Time Zones

All times are in EDT time to prevent confusion due to time zone crossing. See the SKW4717 flight status page for this flight to view local times or setup timezone preferences in your user account.

Time Position Orientation Groundspeed Altitude Reporting Facility
EDT Latitude Longitude Course Direction KTS MPH feet Rate Location/Type
Thu 07:13:33 PM 40.8153 -112.0019 258° West 181 208 5,100  Level Salt Lake Center
Thu 07:14:39 PM 40.8517 -112.0775 303° West 247 284 6,800 1,532 Climbing Salt Lake Center
Thu 07:15:07 PM 40.8611 -112.1133 289° West 258 297 7,500 2,164 Climbing Salt Lake Center
Thu 07:15:40 PM 40.8814 -112.1750 294° West 289 333 9,000 2,226 Climbing Salt Lake Center
Thu 07:16:00 PM 40.8553 -112.3877 288° West  Level FlightAware Approximate
Thu 07:16:09 PM 40.8892 -112.2153 284° West 291 335 9,800  Level Salt Lake Center
Thu 07:17:00 PM 40.8526 -112.5456 261° West  Level FlightAware Approximate
Thu 07:17:10 PM 40.8803 -112.3283 264° West 305 351 11,900  Level Salt Lake Center
Thu 07:18:00 PM 40.8407 -112.7057 258° West  Level FlightAware Approximate
Thu 07:18:12 PM 40.8706 -112.4489 264° West 327 376 13,400  Level Salt Lake Center
Thu 07:19:14 PM 40.8622 -112.5772 265° West 347 399 15,500 1,951 Climbing Salt Lake Center
Thu 07:20:15 PM 40.8500 -112.7333 264° West 356 410 17,400 1,659 Climbing Salt Lake Center
Thu 07:21:17 PM 40.8406 -112.8681 265° West 368 423 18,900 1,403 Climbing Salt Lake Center
Thu 07:22:19 PM 40.8425 -113.0067 271° West 378 435 20,300 1,220 Climbing Salt Lake Center
Thu 07:23:20 PM 40.8425 -113.1472 270° West 386 444 21,400 1,415 Climbing Salt Lake Center
Thu 07:24:22 PM 40.8422 -113.2867 270° West 380 437 23,200 1,452 Climbing Salt Lake Center
Thu 07:25:24 PM 40.8433 -113.4253 271° West 378 435 24,400 1,113 Climbing Salt Lake Center
Thu 07:26:26 PM 40.8431 -113.5658 270° West 382 440 25,500 976 Climbing Salt Lake Center
Thu 07:27:27 PM 40.8422 -113.7406 270° West 394 453 26,400 829 Climbing Salt Lake Center
Thu 07:28:29 PM 40.8403 -113.8878 269° West 400 460 27,200 774 Climbing Salt Lake Center
Thu 07:29:31 PM 40.8394 -114.0381 270° West 408 470 28,000 774 Climbing Salt Lake Center
Thu 07:30:33 PM 40.8389 -114.1894 270° West 412 474 28,800 780 Climbing Salt Lake Center
Thu 07:31:34 PM 40.8381 -114.3428 270° West 416 479 29,600 585 Climbing Salt Lake Center
Thu 07:32:36 PM 40.8356 -114.5133 269° West 418 481 30,000 194 Climbing Salt Lake Center
Thu 07:33:38 PM 40.8336 -114.6658 269° West 428 493 30,000  Level Salt Lake Center
Thu 07:34:40 PM 40.8244 -114.8483 266° West 443 510 30,000  Level Salt Lake Center
Thu 07:35:42 PM 40.8050 -115.0019 261° West 445 512 30,000  Level Salt Lake Center
Thu 07:36:44 PM 40.7833 -115.1764 261° West 435 501 30,000  Level Salt Lake Center
Thu 07:37:45 PM 40.7664 -115.3236 261° West 427 491 30,000  Level Salt Lake Center
Thu 07:38:47 PM 40.7503 -115.4700 262° West 423 487 30,000  Level Salt Lake Center
Thu 07:39:49 PM 40.7292 -115.6417 261° West 424 488 30,000  Level Salt Lake Center
Thu 07:40:51 PM 40.7108 -115.7892 261° West 427 491 30,000  Level Salt Lake Center
Thu 07:41:53 PM 40.6900 -115.9617 261° West 427 491 30,000  Level Salt Lake Center
Thu 07:42:55 PM 40.6722 -116.1114 261° West 430 495 30,000  Level Salt Lake Center
Thu 07:43:57 PM 40.6725 -116.2858 270° West 431 496 30,000  Level Salt Lake Center
Thu 07:44:58 PM 40.7003 -116.4308 284° West 428 493 30,000  Level Salt Lake Center
Thu 07:46:00 PM 40.7278 -116.6003 282° West 427 491 30,000  Level Salt Lake Center
Thu 07:47:02 PM 40.7536 -116.7453 283° West 427 491 30,000  Level Salt Lake Center
Thu 07:48:04 PM 40.7839 -116.9156 283° West 429 494 30,000  Level Salt Lake Center
Thu 07:49:06 PM 40.8106 -117.0608 284° West 429 494 30,000  Level Salt Lake Center
Thu 07:50:08 PM 40.8411 -117.2308 283° West 430 495 30,000  Level Salt Lake Center
Thu 07:51:09 PM 40.8447 -117.3811 272° West 430 495 30,000  Level Salt Lake Center
Thu 07:52:11 PM 40.7781 -117.5300 239° Southwest 430 495 30,000  Level Salt Lake Center
Thu 07:53:13 PM 40.7061 -117.6486 231° Southwest 432 497 30,000  Level Salt Lake Center
Thu 07:54:15 PM 40.6378 -117.7694 233° Southwest 432 497 30,000  Level Salt Lake Center
Thu 07:55:17 PM 40.5586 -117.9111 234° Southwest 431 496 30,000  Level Salt Lake Center
Thu 07:56:19 PM 40.4878 -118.0317 232° Southwest 434 499 30,000  Level Salt Lake Center
Thu 07:57:21 PM 40.4086 -118.1736 234° Southwest 433 498 30,000  Level Salt Lake Center
Thu 07:58:15 PM 40.3456 -118.2864 234° Southwest 434 499 30,000  Level Oakland Center
Thu 07:59:16 PM 40.2739 -118.4131 233° Southwest 434 499 30,000  Level Oakland Center
Thu 08:00:18 PM 40.2006 -118.5389 233° Southwest 437 503 30,000  Level Oakland Center
Thu 08:01:19 PM 40.1286 -118.6642 233° Southwest 434 499 30,000  Level Oakland Center
Thu 08:02:20 PM 40.0564 -118.7925 234° Southwest 437 503 30,000  Level Oakland Center
Thu 08:03:22 PM 39.9672 -118.9408 232° Southwest 436 502 30,000  Level Oakland Center
Thu 08:04:23 PM 39.8947 -119.0667 233° Southwest 437 503 30,000 -439 Level Oakland Center
Thu 08:05:25 PM 39.8206 -119.1931 233° Southwest 441 507 29,100 -1,317 Descending Oakland Center
Thu 08:06:26 PM 39.7600 -119.3333 241° Southwest 450 518 27,300 -1,770 Descending Oakland Center
Thu 08:07:27 PM 39.7047 -119.4711 242° Southwest 437 503 25,500 -1,610 Descending Oakland Center
Thu 08:08:29 PM 39.6494 -119.6050 242° Southwest 427 491 24,000 -732 Descending Oakland Center
Thu 08:09:30 PM 39.6064 -119.7397 248° West 410 472 24,000  Level Oakland Center
Thu 08:10:32 PM 39.5592 -119.9008 249° West 402 463 24,000 -341 Level Oakland Center
Thu 08:11:33 PM 39.5119 -120.0450 247° West 434 499 23,300 -689 Descending Oakland Center
Thu 08:12:34 PM 39.4681 -120.1697 246° West 425 489 22,600 -683 Descending Oakland Center
Thu 08:13:36 PM 39.4211 -120.3114 247° West 428 493 21,900 -732 Descending Oakland Center
Thu 08:14:37 PM 39.3614 -120.4428 240° Southwest 429 494 21,100 -878 Descending Oakland Center
Thu 08:15:39 PM 39.2853 -120.5931 237° Southwest 419 482 20,100 -878 Descending Oakland Center
Thu 08:16:40 PM 39.2233 -120.7175 237° Southwest 415 478 19,300 -787 Descending Oakland Center
Thu 08:17:41 PM 39.1633 -120.8397 238° Southwest 409 471 18,500 -780 Descending Oakland Center
Thu 08:18:43 PM 39.1039 -120.9617 238° Southwest 405 466 17,700 -878 Descending Oakland Center
Thu 08:19:44 PM 39.0442 -121.0803 237° Southwest 400 460 16,700 -1,426 Descending Oakland Center
Thu 08:20:45 PM 38.9903 -121.1892 238° Southwest 375 432 14,800 -1,854 Descending Oakland Center
Thu 08:21:47 PM 38.9600 -121.2969 250° West 355 409 12,900 -1,854 Descending Oakland Center
Thu 08:22:48 PM 39.0131 -121.3817 309° West 311 358 11,000 -2,000 Descending Oakland Center
Thu 08:23:41 PM 39.0500 -121.4667 299° West 315 362 9,100 -2,018 Descending Northern Cal TRACON
Thu 08:24:41 PM 39.0000 -121.5500 232° Southwest 272 313 7,200 -1,700 Descending Northern Cal TRACON
Thu 08:25:41 PM 38.9333 -121.5667 191° South 225 259 5,700 -1,750 Descending Northern Cal TRACON
Thu 08:26:41 PM 38.8833 -121.5833 195° South 201 231 3,700 -1,600 Descending Northern Cal TRACON
Thu 08:27:41 PM 38.8333 -121.5833 180° South 182 209 2,500 -1,200 Descending Northern Cal TRACON

Login

Don't have an account? Register now (free) for customized features, flight alerts, and more!